sensor_id;sensor_type;location;lat;lon;timestamp;pressure;altitude;pressure_sealevel;temperature;humidity
64916;BME280;51427;-27.442;153.014;2024-03-07T00:00:16;101942.09;;;27.03;66.22
64916;BME280;51427;-27.442;153.014;2024-03-07T00:02:48;101942.09;;;27.03;67.13
64916;BME280;51427;-27.442;153.014;2024-03-07T00:05:20;101937.38;;;27.16;67.23
64916;BME280;51427;-27.442;153.014;2024-03-07T00:07:52;101933.97;;;27.67;65.81
64916;BME280;51427;-27.442;153.014;2024-03-07T00:10:19;101926.88;;;27.46;66.14
64916;BME280;51427;-27.442;153.014;2024-03-07T00:12:47;101926.06;;;27.45;65.36
64916;BME280;51427;-27.442;153.014;2024-03-07T00:15:15;101924.34;;;26.96;66.16
64916;BME280;51427;-27.442;153.014;2024-03-07T00:17:42;101933.28;;;27.01;66.94
64916;BME280;51427;-27.442;153.014;2024-03-07T00:20:10;101939.56;;;26.78;65.17
64916;BME280;51427;-27.442;153.014;2024-03-07T00:22:46;101930.63;;;27.05;65.08
64916;BME280;51427;-27.442;153.014;2024-03-07T00:25:14;101931.69;;;27.12;65.64
64916;BME280;51427;-27.442;153.014;2024-03-07T00:27:45;101928.59;;;28.11;61.75
64916;BME280;51427;-27.442;153.014;2024-03-07T00:30:13;101922.09;;;27.95;62.43
64916;BME280;51427;-27.442;153.014;2024-03-07T00:32:45;101925.97;;;27.66;66.00
64916;BME280;51427;-27.442;153.014;2024-03-07T00:35:13;101920.59;;;27.61;65.28
64916;BME280;51427;-27.442;153.014;2024-03-07T00:37:41;101926.81;;;27.09;63.23
64916;BME280;51427;-27.442;153.014;2024-03-07T00:40:08;101926.00;;;27.21;64.36
64916;BME280;51427;-27.442;153.014;2024-03-07T00:42:36;101921.69;;;27.11;61.75
64916;BME280;51427;-27.442;153.014;2024-03-07T00:45:04;101924.72;;;27.06;61.45
64916;BME280;51427;-27.442;153.014;2024-03-07T00:47:32;101921.59;;;27.32;61.74
64916;BME280;51427;-27.442;153.014;2024-03-07T00:50:00;101913.16;;;27.65;62.08
64916;BME280;51427;-27.442;153.014;2024-03-07T00:52:27;101905.47;;;27.38;62.84
64916;BME280;51427;-27.442;153.014;2024-03-07T00:54:54;101922.94;;;26.48;68.84
64916;BME280;51427;-27.442;153.014;2024-03-07T00:57:21;101916.69;;;26.51;68.78
64916;BME280;51427;-27.442;153.014;2024-03-07T00:59:49;101916.06;;;26.87;67.52
64916;BME280;51427;-27.442;153.014;2024-03-07T01:02:16;101914.72;;;27.17;66.36
64916;BME280;51427;-27.442;153.014;2024-03-07T01:04:46;101900.97;;;27.69;66.64
64916;BME280;51427;-27.442;153.014;2024-03-07T01:07:13;101892.06;;;28.04;64.68
64916;BME280;51427;-27.442;153.014;2024-03-07T01:09:40;101897.81;;;27.83;64.83
64916;BME280;51427;-27.442;153.014;2024-03-07T01:12:08;101896.28;;;27.86;63.86
64916;BME280;51427;-27.442;153.014;2024-03-07T01:14:36;101888.59;;;28.07;62.74
64916;BME280;51427;-27.442;153.014;2024-03-07T01:17:03;101878.38;;;27.75;61.50
64916;BME280;51427;-27.442;153.014;2024-03-07T01:19:34;101868.75;;;28.24;62.40
64916;BME280;51427;-27.442;153.014;2024-03-07T01:22:01;101862.06;;;28.01;60.77
64916;BME280;51427;-27.442;153.014;2024-03-07T01:24:28;101866.94;;;28.16;61.07
64916;BME280;51427;-27.442;153.014;2024-03-07T01:26:56;101863.84;;;28.33;61.22
64916;BME280;51427;-27.442;153.014;2024-03-07T01:29:23;101878.13;;;27.92;60.18
64916;BME280;51427;-27.442;153.014;2024-03-07T01:31:50;101853.22;;;27.99;60.52
64916;BME280;51427;-27.442;153.014;2024-03-07T01:34:18;101849.31;;;28.83;60.36
64916;BME280;51427;-27.442;153.014;2024-03-07T01:36:45;101839.13;;;28.91;59.26
64916;BME280;51427;-27.442;153.014;2024-03-07T01:39:12;101841.00;;;28.71;57.02
64916;BME280;51427;-27.442;153.014;2024-03-07T01:41:40;101838.31;;;28.47;56.21
64916;BME280;51427;-27.442;153.014;2024-03-07T01:44:07;101841.00;;;28.71;56.34
64916;BME280;51427;-27.442;153.014;2024-03-07T01:46:35;101839.31;;;28.98;54.62
64916;BME280;51427;-27.442;153.014;2024-03-07T01:49:02;101832.78;;;28.78;55.01
64916;BME280;51427;-27.442;153.014;2024-03-07T01:51:29;101819.56;;;28.63;54.53
64916;BME280;51427;-27.442;153.014;2024-03-07T01:53:57;101821.34;;;28.99;53.90
64916;BME280;51427;-27.442;153.014;2024-03-07T01:56:24;101813.59;;;28.92;54.16
64916;BME280;51427;-27.442;153.014;2024-03-07T01:58:52;101807.63;;;29.09;54.46
64916;BME280;51427;-27.442;153.014;2024-03-07T02:01:20;101808.28;;;29.03;53.57
64916;BME280;51427;-27.442;153.014;2024-03-07T02:03:47;101816.50;;;29.62;53.64
64916;BME280;51427;-27.442;153.014;2024-03-07T02:06:15;101807.69;;;28.66;54.52
64916;BME280;51427;-27.442;153.014;2024-03-07T02:08:42;101809.97;;;28.92;51.75
64916;BME280;51427;-27.442;153.014;2024-03-07T02:11:10;101811.34;;;29.13;51.08
64916;BME280;51427;-27.442;153.014;2024-03-07T02:13:37;101794.75;;;29.05;51.20
64916;BME280;51427;-27.442;153.014;2024-03-07T02:16:05;101793.31;;;29.11;52.08
64916;BME280;51427;-27.442;153.014;2024-03-07T02:18:35;101786.16;;;29.13;51.97
64916;BME280;51427;-27.442;153.014;2024-03-07T02:21:07;101786.50;;;29.43;53.00
64916;BME280;51427;-27.442;153.014;2024-03-07T02:23:35;101786.25;;;29.17;52.86
64916;BME280;51427;-27.442;153.014;2024-03-07T02:26:02;101776.59;;;29.30;52.94
64916;BME280;51427;-27.442;153.014;2024-03-07T02:28:30;101771.50;;;29.86;51.07
64916;BME280;51427;-27.442;153.014;2024-03-07T02:30:57;101777.31;;;29.97;50.04
64916;BME280;51427;-27.442;153.014;2024-03-07T02:33:24;101770.13;;;29.80;49.93
64916;BME280;51427;-27.442;153.014;2024-03-07T02:35:52;101766.16;;;28.96;52.12
64916;BME280;51427;-27.442;153.014;2024-03-07T02:38:19;101764.16;;;29.28;52.35
64916;BME280;51427;-27.442;153.014;2024-03-07T02:40:46;101755.50;;;29.33;53.63
64916;BME280;51427;-27.442;153.014;2024-03-07T02:43:14;101756.56;;;29.28;53.64
64916;BME280;51427;-27.442;153.014;2024-03-07T02:45:42;101751.44;;;28.99;54.42
64916;BME280;51427;-27.442;153.014;2024-03-07T02:48:09;101771.88;;;28.84;55.20
64916;BME280;51427;-27.442;153.014;2024-03-07T02:50:36;101761.47;;;28.69;55.56
64916;BME280;51427;-27.442;153.014;2024-03-07T02:53:04;101760.47;;;28.92;51.64
64916;BME280;51427;-27.442;153.014;2024-03-07T02:55:32;101761.03;;;28.98;51.64
64916;BME280;51427;-27.442;153.014;2024-03-07T02:58:00;101754.47;;;29.25;50.63
64916;BME280;51427;-27.442;153.014;2024-03-07T03:00:27;101738.06;;;29.39;51.03
64916;BME280;51427;-27.442;153.014;2024-03-07T03:02:56;101741.91;;;29.70;50.55
64916;BME280;51427;-27.442;153.014;2024-03-07T03:05:24;101742.72;;;29.51;51.49
64916;BME280;51427;-27.442;153.014;2024-03-07T03:07:51;101744.78;;;29.54;51.70
64916;BME280;51427;-27.442;153.014;2024-03-07T03:10:25;101737.56;;;29.53;50.42
64916;BME280;51427;-27.442;153.014;2024-03-07T03:12:58;101737.97;;;29.90;50.67
64916;BME280;51427;-27.442;153.014;2024-03-07T03:15:27;101734.75;;;29.18;51.46
64916;BME280;51427;-27.442;153.014;2024-03-07T03:17:55;101729.41;;;30.44;52.40
64916;BME280;51427;-27.442;153.014;2024-03-07T03:20:26;101730.72;;;30.08;51.58
64916;BME280;51427;-27.442;153.014;2024-03-07T03:23:05;101737.44;;;29.14;53.13
64916;BME280;51427;-27.442;153.014;2024-03-07T03:25:37;101748.34;;;28.41;53.55
64916;BME280;51427;-27.442;153.014;2024-03-07T03:28:08;101742.16;;;28.48;53.00
64916;BME280;51427;-27.442;153.014;2024-03-07T03:30:38;101734.34;;;28.69;53.08
64916;BME280;51427;-27.442;153.014;2024-03-07T03:33:05;101732.50;;;29.08;52.38
64916;BME280;51427;-27.442;153.014;2024-03-07T03:35:33;101731.53;;;28.85;52.14
64916;BME280;51427;-27.442;153.014;2024-03-07T03:38:01;101723.13;;;29.00;52.88
64916;BME280;51427;-27.442;153.014;2024-03-07T03:40:28;101725.56;;;29.02;52.02
64916;BME280;51427;-27.442;153.014;2024-03-07T03:42:55;101728.88;;;29.58;52.66
64916;BME280;51427;-27.442;153.014;2024-03-07T03:45:23;101716.81;;;29.03;50.92
64916;BME280;51427;-27.442;153.014;2024-03-07T03:47:52;101715.28;;;29.06;53.19
64916;BME280;51427;-27.442;153.014;2024-03-07T03:50:19;101709.63;;;28.87;53.45
64916;BME280;51427;-27.442;153.014;2024-03-07T03:52:49;101705.28;;;28.89;55.03
64916;BME280;51427;-27.442;153.014;2024-03-07T03:55:17;101718.00;;;28.55;54.61
64916;BME280;51427;-27.442;153.014;2024-03-07T03:57:44;101719.72;;;28.44;54.97
64916;BME280;51427;-27.442;153.014;2024-03-07T04:00:15;101707.31;;;28.14;55.78
64916;BME280;51427;-27.442;153.014;2024-03-07T04:02:44;101708.81;;;28.71;54.53
64916;BME280;51427;-27.442;153.014;2024-03-07T04:05:16;101695.34;;;29.07;53.39
64916;BME280;51427;-27.442;153.014;2024-03-07T04:07:44;101719.91;;;28.67;53.24
64916;BME280;51427;-27.442;153.014;2024-03-07T04:10:12;101688.59;;;28.93;53.77
64916;BME280;51427;-27.442;153.014;2024-03-07T04:12:40;101692.59;;;29.27;52.79
64916;BME280;51427;-27.442;153.014;2024-03-07T04:15:10;101689.88;;;29.30;53.91
64916;BME280;51427;-27.442;153.014;2024-03-07T04:17:38;101694.28;;;28.81;55.98
64916;BME280;51427;-27.442;153.014;2024-03-07T04:20:06;101685.47;;;28.47;56.77
64916;BME280;51427;-27.442;153.014;2024-03-07T04:22:37;101690.50;;;28.57;56.82
64916;BME280;51427;-27.442;153.014;2024-03-07T04:25:07;101683.13;;;28.65;56.89
64916;BME280;51427;-27.442;153.014;2024-03-07T04:27:36;101685.19;;;28.52;55.89
64916;BME280;51427;-27.442;153.014;2024-03-07T04:30:07;101685.81;;;28.77;56.35
64916;BME280;51427;-27.442;153.014;2024-03-07T04:32:38;101682.94;;;29.24;55.13
64916;BME280;51427;-27.442;153.014;2024-03-07T04:35:08;101684.56;;;28.90;55.13
64916;BME280;51427;-27.442;153.014;2024-03-07T04:37:37;101690.84;;;29.03;54.57
64916;BME280;51427;-27.442;153.014;2024-03-07T04:40:08;101686.16;;;28.29;56.05
64916;BME280;51427;-27.442;153.014;2024-03-07T04:42:47;101684.66;;;28.78;54.34
64916;BME280;51427;-27.442;153.014;2024-03-07T04:45:18;101672.22;;;28.76;52.72
64916;BME280;51427;-27.442;153.014;2024-03-07T04:47:47;101668.19;;;29.08;53.36
64916;BME280;51427;-27.442;153.014;2024-03-07T04:50:14;101672.72;;;28.97;54.46
64916;BME280;51427;-27.442;153.014;2024-03-07T04:52:43;101668.06;;;28.85;53.30
64916;BME280;51427;-27.442;153.014;2024-03-07T04:55:12;101661.53;;;28.97;53.58
64916;BME280;51427;-27.442;153.014;2024-03-07T04:57:39;101658.34;;;29.14;52.84
64916;BME280;51427;-27.442;153.014;2024-03-07T05:00:09;101665.34;;;29.24;53.43
64916;BME280;51427;-27.442;153.014;2024-03-07T05:02:48;101669.28;;;29.03;54.08
64916;BME280;51427;-27.442;153.014;2024-03-07T05:05:20;101675.63;;;28.38;54.14
64916;BME280;51427;-27.442;153.014;2024-03-07T05:07:52;101680.97;;;27.99;52.93
64916;BME280;51427;-27.442;153.014;2024-03-07T05:10:19;101668.78;;;28.35;52.65
64916;BME280;51427;-27.442;153.014;2024-03-07T05:12:47;101663.69;;;28.69;53.64
64916;BME280;51427;-27.442;153.014;2024-03-07T05:15:16;101668.88;;;28.70;54.13
64916;BME280;51427;-27.442;153.014;2024-03-07T05:17:43;101674.66;;;28.46;54.29
64916;BME280;51427;-27.442;153.014;2024-03-07T05:20:11;101674.47;;;28.54;53.89
64916;BME280;51427;-27.442;153.014;2024-03-07T05:22:39;101679.06;;;28.31;55.01
64916;BME280;51427;-27.442;153.014;2024-03-07T05:25:10;101680.84;;;28.08;56.06
64916;BME280;51427;-27.442;153.014;2024-03-07T05:27:38;101661.56;;;28.50;55.91
64916;BME280;51427;-27.442;153.014;2024-03-07T05:30:06;101671.50;;;28.47;54.70
64916;BME280;51427;-27.442;153.014;2024-03-07T05:32:35;101668.00;;;27.91;55.19
64916;BME280;51427;-27.442;153.014;2024-03-07T05:35:03;101676.59;;;28.14;55.23
64916;BME280;51427;-27.442;153.014;2024-03-07T05:37:30;101670.94;;;28.57;54.98
64916;BME280;51427;-27.442;153.014;2024-03-07T05:39:58;101670.13;;;28.41;54.37
64916;BME280;51427;-27.442;153.014;2024-03-07T05:42:26;101703.19;;;28.24;54.94
64916;BME280;51427;-27.442;153.014;2024-03-07T05:44:53;101698.88;;;28.57;55.16
64916;BME280;51427;-27.442;153.014;2024-03-07T05:47:20;101682.59;;;28.00;56.53
64916;BME280;51427;-27.442;153.014;2024-03-07T05:49:48;101687.06;;;27.89;57.20
64916;BME280;51427;-27.442;153.014;2024-03-07T05:52:15;101677.88;;;27.61;58.18
64916;BME280;51427;-27.442;153.014;2024-03-07T05:54:43;101671.19;;;27.78;58.36
64916;BME280;51427;-27.442;153.014;2024-03-07T05:57:10;101671.56;;;27.76;58.45
64916;BME280;51427;-27.442;153.014;2024-03-07T05:59:38;101673.97;;;27.78;58.85
64916;BME280;51427;-27.442;153.014;2024-03-07T06:02:05;101672.09;;;27.82;59.18
64916;BME280;51427;-27.442;153.014;2024-03-07T06:04:32;101692.34;;;27.39;59.52
64916;BME280;51427;-27.442;153.014;2024-03-07T06:07:00;101688.66;;;27.35;58.59
64916;BME280;51427;-27.442;153.014;2024-03-07T06:09:27;101699.34;;;27.33;58.82
64916;BME280;51427;-27.442;153.014;2024-03-07T06:11:55;101689.22;;;27.40;60.03
64916;BME280;51427;-27.442;153.014;2024-03-07T06:14:22;101695.84;;;27.36;60.26
64916;BME280;51427;-27.442;153.014;2024-03-07T06:16:50;101699.81;;;27.35;61.28
64916;BME280;51427;-27.442;153.014;2024-03-07T06:19:18;101689.44;;;27.35;59.60
64916;BME280;51427;-27.442;153.014;2024-03-07T06:21:45;101694.69;;;27.37;58.22
64916;BME280;51427;-27.442;153.014;2024-03-07T06:24:13;101697.13;;;27.38;59.16
64916;BME280;51427;-27.442;153.014;2024-03-07T06:26:41;101697.16;;;27.26;60.19
64916;BME280;51427;-27.442;153.014;2024-03-07T06:29:12;101695.88;;;27.11;60.11
64916;BME280;51427;-27.442;153.014;2024-03-07T06:31:40;101699.16;;;27.13;59.66
64916;BME280;51427;-27.442;153.014;2024-03-07T06:34:10;101701.91;;;27.26;59.48
64916;BME280;51427;-27.442;153.014;2024-03-07T06:36:37;101701.47;;;27.11;58.65
64916;BME280;51427;-27.442;153.014;2024-03-07T06:39:05;101697.66;;;26.92;58.80
64916;BME280;51427;-27.442;153.014;2024-03-07T06:41:35;101705.22;;;26.91;59.21
64916;BME280;51427;-27.442;153.014;2024-03-07T06:44:03;101703.13;;;26.88;59.56
64916;BME280;51427;-27.442;153.014;2024-03-07T06:46:30;101707.19;;;26.91;59.89
64916;BME280;51427;-27.442;153.014;2024-03-07T06:48:58;101714.72;;;27.02;59.51
64916;BME280;51427;-27.442;153.014;2024-03-07T06:51:26;101710.19;;;27.10;60.03
64916;BME280;51427;-27.442;153.014;2024-03-07T06:53:53;101718.31;;;27.15;58.90
64916;BME280;51427;-27.442;153.014;2024-03-07T06:56:22;101716.56;;;26.86;59.51
64916;BME280;51427;-27.442;153.014;2024-03-07T06:58:50;101725.03;;;26.78;59.66
64916;BME280;51427;-27.442;153.014;2024-03-07T07:01:18;101731.31;;;26.75;59.66
64916;BME280;51427;-27.442;153.014;2024-03-07T07:03:46;101736.88;;;26.75;59.57
64916;BME280;51427;-27.442;153.014;2024-03-07T07:06:14;101732.91;;;26.76;59.72
64916;BME280;51427;-27.442;153.014;2024-03-07T07:08:41;101748.34;;;26.73;59.20
64916;BME280;51427;-27.442;153.014;2024-03-07T07:11:08;101757.28;;;26.66;59.39
64916;BME280;51427;-27.442;153.014;2024-03-07T07:13:37;101736.84;;;26.62;59.51
64916;BME280;51427;-27.442;153.014;2024-03-07T07:16:05;101754.97;;;26.56;59.79
64916;BME280;51427;-27.442;153.014;2024-03-07T07:18:32;101747.63;;;26.52;59.93
64916;BME280;51427;-27.442;153.014;2024-03-07T07:21:00;101748.31;;;26.49;60.58
64916;BME280;51427;-27.442;153.014;2024-03-07T07:23:29;101744.94;;;26.43;61.15
64916;BME280;51427;-27.442;153.014;2024-03-07T07:25:56;101751.00;;;26.45;61.05
64916;BME280;51427;-27.442;153.014;2024-03-07T07:28:23;101756.19;;;26.47;61.38
64916;BME280;51427;-27.442;153.014;2024-03-07T07:30:51;101763.97;;;26.41;61.36
64916;BME280;51427;-27.442;153.014;2024-03-07T07:33:18;101765.59;;;26.42;61.02
64916;BME280;51427;-27.442;153.014;2024-03-07T07:35:46;101766.75;;;26.41;61.66
64916;BME280;51427;-27.442;153.014;2024-03-07T07:38:13;101770.22;;;26.38;61.83
64916;BME280;51427;-27.442;153.014;2024-03-07T07:40:41;101772.06;;;26.34;62.11
64916;BME280;51427;-27.442;153.014;2024-03-07T07:43:08;101776.25;;;26.28;63.07
64916;BME280;51427;-27.442;153.014;2024-03-07T07:45:38;101772.16;;;26.26;63.22
64916;BME280;51427;-27.442;153.014;2024-03-07T07:48:05;101776.81;;;26.21;63.38
64916;BME280;51427;-27.442;153.014;2024-03-07T07:50:33;101781.19;;;26.22;62.47
64916;BME280;51427;-27.442;153.014;2024-03-07T07:53:01;101784.66;;;26.19;62.27
64916;BME280;51427;-27.442;153.014;2024-03-07T07:55:33;101783.03;;;26.18;62.32
64916;BME280;51427;-27.442;153.014;2024-03-07T07:58:01;101782.41;;;26.13;62.93
64916;BME280;51427;-27.442;153.014;2024-03-07T08:00:31;101788.66;;;26.10;63.04
64916;BME280;51427;-27.442;153.014;2024-03-07T08:03:03;101791.63;;;26.05;63.34
64916;BME280;51427;-27.442;153.014;2024-03-07T08:05:33;101792.81;;;26.04;62.97
64916;BME280;51427;-27.442;153.014;2024-03-07T08:08:04;101797.63;;;25.95;64.34
64916;BME280;51427;-27.442;153.014;2024-03-07T08:10:34;101808.34;;;26.05;62.66
64916;BME280;51427;-27.442;153.014;2024-03-07T08:13:03;101817.25;;;25.98;63.30
64916;BME280;51427;-27.442;153.014;2024-03-07T08:15:32;101810.84;;;25.98;62.21
64916;BME280;51427;-27.442;153.014;2024-03-07T08:18:00;101817.47;;;25.93;62.76
64916;BME280;51427;-27.442;153.014;2024-03-07T08:20:28;101812.91;;;25.89;62.73
64916;BME280;51427;-27.442;153.014;2024-03-07T08:22:57;101825.31;;;25.91;62.36
64916;BME280;51427;-27.442;153.014;2024-03-07T08:25:28;101827.13;;;25.87;62.54
64916;BME280;51427;-27.442;153.014;2024-03-07T08:27:57;101841.53;;;25.89;62.79
64916;BME280;51427;-27.442;153.014;2024-03-07T08:30:24;101840.09;;;25.83;62.57
64916;BME280;51427;-27.442;153.014;2024-03-07T08:32:55;101850.09;;;25.84;62.37
64916;BME280;51427;-27.442;153.014;2024-03-07T08:35:23;101852.03;;;25.84;62.23
64916;BME280;51427;-27.442;153.014;2024-03-07T08:37:51;101857.59;;;25.84;62.06
64916;BME280;51427;-27.442;153.014;2024-03-07T08:40:24;101859.94;;;25.82;62.54
64916;BME280;51427;-27.442;153.014;2024-03-07T08:42:53;101860.75;;;25.82;62.63
64916;BME280;51427;-27.442;153.014;2024-03-07T08:45:24;101853.94;;;25.71;62.88
64916;BME280;51427;-27.442;153.014;2024-03-07T08:47:53;101860.50;;;25.66;63.23
64916;BME280;51427;-27.442;153.014;2024-03-07T08:50:21;101870.00;;;25.65;63.29
64916;BME280;51427;-27.442;153.014;2024-03-07T08:52:49;101883.38;;;25.72;63.32
64916;BME280;51427;-27.442;153.014;2024-03-07T08:55:21;101885.34;;;25.71;62.75
64916;BME280;51427;-27.442;153.014;2024-03-07T08:57:49;101887.31;;;25.71;63.01
64916;BME280;51427;-27.442;153.014;2024-03-07T09:00:17;101890.91;;;25.71;62.81
64916;BME280;51427;-27.442;153.014;2024-03-07T09:02:56;101891.84;;;25.75;62.75
64916;BME280;51427;-27.442;153.014;2024-03-07T09:05:26;101899.59;;;25.70;63.37
64916;BME280;51427;-27.442;153.014;2024-03-07T09:07:54;101904.63;;;25.77;62.79
64916;BME280;51427;-27.442;153.014;2024-03-07T09:10:21;101899.72;;;25.73;62.44
64916;BME280;51427;-27.442;153.014;2024-03-07T09:12:52;101901.38;;;25.74;62.42
64916;BME280;51427;-27.442;153.014;2024-03-07T09:15:20;101901.00;;;25.76;62.74
64916;BME280;51427;-27.442;153.014;2024-03-07T09:17:48;101896.81;;;25.70;62.95
64916;BME280;51427;-27.442;153.014;2024-03-07T09:20:15;101900.41;;;25.70;62.74
64916;BME280;51427;-27.442;153.014;2024-03-07T09:22:46;101913.34;;;25.66;62.76
64916;BME280;51427;-27.442;153.014;2024-03-07T09:25:20;101915.66;;;25.64;62.66
64916;BME280;51427;-27.442;153.014;2024-03-07T09:27:48;101910.56;;;25.66;62.45
64916;BME280;51427;-27.442;153.014;2024-03-07T09:30:15;101912.88;;;25.64;62.54
64916;BME280;51427;-27.442;153.014;2024-03-07T09:32:45;101918.31;;;25.61;62.96
64916;BME280;51427;-27.442;153.014;2024-03-07T09:35:13;101917.94;;;25.62;62.47
64916;BME280;51427;-27.442;153.014;2024-03-07T09:37:41;101924.84;;;25.56;63.19
64916;BME280;51427;-27.442;153.014;2024-03-07T09:40:10;101928.31;;;25.53;62.51
64916;BME280;51427;-27.442;153.014;2024-03-07T09:42:48;101931.72;;;25.50;63.11
64916;BME280;51427;-27.442;153.014;2024-03-07T09:45:20;101931.41;;;25.52;62.85
64916;BME280;51427;-27.442;153.014;2024-03-07T09:47:49;101939.25;;;25.50;62.90
64916;BME280;51427;-27.442;153.014;2024-03-07T09:50:19;101946.13;;;25.44;62.94
64916;BME280;51427;-27.442;153.014;2024-03-07T09:52:49;101948.41;;;25.50;62.66
64916;BME280;51427;-27.442;153.014;2024-03-07T09:55:21;101954.53;;;25.35;63.32
64916;BME280;51427;-27.442;153.014;2024-03-07T09:57:50;101957.97;;;25.32;63.70
64916;BME280;51427;-27.442;153.014;2024-03-07T10:00:20;101950.75;;;25.40;63.15
64916;BME280;51427;-27.442;153.014;2024-03-07T10:05:27;101952.56;;;25.36;63.20
64916;BME280;51427;-27.442;153.014;2024-03-07T10:07:55;101956.81;;;25.33;63.38
64916;BME280;51427;-27.442;153.014;2024-03-07T10:10:23;101963.00;;;25.39;63.37
64916;BME280;51427;-27.442;153.014;2024-03-07T10:12:51;101969.44;;;25.22;63.74
64916;BME280;51427;-27.442;153.014;2024-03-07T10:15:31;101971.97;;;25.53;63.64
64916;BME280;51427;-27.442;153.014;2024-03-07T10:17:59;101985.97;;;25.18;64.70
64916;BME280;51427;-27.442;153.014;2024-03-07T10:20:27;101985.66;;;25.11;64.46
64916;BME280;51427;-27.442;153.014;2024-03-07T10:22:54;101989.56;;;25.10;64.51
64916;BME280;51427;-27.442;153.014;2024-03-07T10:25:24;101993.69;;;25.04;64.60
64916;BME280;51427;-27.442;153.014;2024-03-07T10:27:53;101991.06;;;25.08;64.62
64916;BME280;51427;-27.442;153.014;2024-03-07T10:30:21;101993.19;;;25.11;64.26
64916;BME280;51427;-27.442;153.014;2024-03-07T10:32:54;101993.19;;;25.02;64.80
64916;BME280;51427;-27.442;153.014;2024-03-07T10:35:23;101997.91;;;25.02;64.78
64916;BME280;51427;-27.442;153.014;2024-03-07T10:37:54;101996.63;;;24.99;64.78
64916;BME280;51427;-27.442;153.014;2024-03-07T10:40:22;101991.56;;;24.93;65.39
64916;BME280;51427;-27.442;153.014;2024-03-07T10:42:56;101996.47;;;24.96;65.45
64916;BME280;51427;-27.442;153.014;2024-03-07T10:45:27;102003.50;;;24.93;65.36
64916;BME280;51427;-27.442;153.014;2024-03-07T10:47:56;102001.03;;;24.92;65.48
64916;BME280;51427;-27.442;153.014;2024-03-07T10:53:51;101994.47;;;25.05;65.35
64916;BME280;51427;-27.442;153.014;2024-03-07T10:59:18;102005.25;;;24.81;66.21
64916;BME280;51427;-27.442;153.014;2024-03-07T11:01:57;102017.19;;;24.81;66.25
64916;BME280;51427;-27.442;153.014;2024-03-07T11:04:26;102021.09;;;24.80;67.04
64916;BME280;51427;-27.442;153.014;2024-03-07T11:06:55;102014.25;;;24.77;66.85
64916;BME280;51427;-27.442;153.014;2024-03-07T11:09:22;102027.16;;;24.73;66.94
64916;BME280;51427;-27.442;153.014;2024-03-07T11:11:50;102015.72;;;24.66;67.36
64916;BME280;51427;-27.442;153.014;2024-03-07T11:14:18;102010.00;;;24.63;67.64
64916;BME280;51427;-27.442;153.014;2024-03-07T11:16:47;102012.75;;;24.63;67.43
64916;BME280;51427;-27.442;153.014;2024-03-07T11:21:57;102017.50;;;24.71;66.93
64916;BME280;51427;-27.442;153.014;2024-03-07T11:24:31;102020.78;;;24.64;67.20
64916;BME280;51427;-27.442;153.014;2024-03-07T11:27:03;102019.97;;;24.64;67.38
64916;BME280;51427;-27.442;153.014;2024-03-07T11:29:50;102021.75;;;24.60;67.74
64916;BME280;51427;-27.442;153.014;2024-03-07T11:32:20;102030.59;;;24.62;67.39
64916;BME280;51427;-27.442;153.014;2024-03-07T11:34:49;102024.88;;;24.58;67.97
64916;BME280;51427;-27.442;153.014;2024-03-07T11:37:37;102031.41;;;24.71;67.63
64916;BME280;51427;-27.442;153.014;2024-03-07T11:43:01;102008.22;;;24.58;68.06
64916;BME280;51427;-27.442;153.014;2024-03-07T11:45:32;102000.22;;;24.65;67.92
64916;BME280;51427;-27.442;153.014;2024-03-07T11:48:05;102002.47;;;24.63;67.84
64916;BME280;51427;-27.442;153.014;2024-03-07T11:50:39;102005.59;;;24.70;67.64
64916;BME280;51427;-27.442;153.014;2024-03-07T11:53:08;102002.00;;;24.61;68.30
64916;BME280;51427;-27.442;153.014;2024-03-07T11:55:37;102009.19;;;24.71;67.59
64916;BME280;51427;-27.442;153.014;2024-03-07T11:58:16;102001.84;;;24.58;68.45
64916;BME280;51427;-27.442;153.014;2024-03-07T12:00:45;101992.84;;;24.61;68.43
64916;BME280;51427;-27.442;153.014;2024-03-07T12:03:13;101982.06;;;24.51;68.71
64916;BME280;51427;-27.442;153.014;2024-03-07T12:05:41;101990.72;;;24.58;68.41
64916;BME280;51427;-27.442;153.014;2024-03-07T12:08:11;101986.97;;;24.54;68.48
64916;BME280;51427;-27.442;153.014;2024-03-07T12:10:40;101999.38;;;24.56;68.25
64916;BME280;51427;-27.442;153.014;2024-03-07T12:13:14;102003.78;;;24.57;68.72
64916;BME280;51427;-27.442;153.014;2024-03-07T12:15:46;102002.81;;;24.62;68.29
64916;BME280;51427;-27.442;153.014;2024-03-07T12:18:15;102000.69;;;24.67;68.42
64916;BME280;51427;-27.442;153.014;2024-03-07T12:20:44;101998.91;;;24.71;67.86
64916;BME280;51427;-27.442;153.014;2024-03-07T12:23:23;101999.88;;;24.58;68.98
64916;BME280;51427;-27.442;153.014;2024-03-07T12:26:04;101993.31;;;24.46;70.68
64916;BME280;51427;-27.442;153.014;2024-03-07T12:28:32;101982.84;;;24.17;72.65
64916;BME280;51427;-27.442;153.014;2024-03-07T12:31:05;101983.59;;;24.00;73.17
64916;BME280;51427;-27.442;153.014;2024-03-07T12:33:42;101973.97;;;24.06;73.24
64916;BME280;51427;-27.442;153.014;2024-03-07T12:36:13;101971.84;;;24.03;73.52
64916;BME280;51427;-27.442;153.014;2024-03-07T12:38:40;101977.56;;;24.07;73.85
64916;BME280;51427;-27.442;153.014;2024-03-07T12:41:10;101986.66;;;23.99;74.97
64916;BME280;51427;-27.442;153.014;2024-03-07T12:43:44;101981.81;;;24.04;74.66